El Trompillo Airport
SLET : rendu visible

Aérodrome :











RETROUVEZ-NOUS SUR...

 
LOGIN :

S'inscrire | Disclaimer

   EN    FR    IT 

 









Légende :    VFR   VFR Marginal   IFR   IFR Intensif   IFR Très Intensif
Visi : 
Plafond : 
>= 8 km
>= 3000ft
5 à 8 km
1000 à 3000 ft
1500m à 5 km
500 à 1000 ft
800 à 1500m
200 à 500 ft
< 800m
< 200 ft
Symboles :   Orages  Brouillard  Fortes neiges  Fortes précipitations  Vent > 20 kt






- Altitude de l'aérodrome : 1371 ft
- Code IATA : SRZ


SLET - El Trompillo

DERNIER METAR :
  • 222100Z VRB02KT 9999 NSC 28/07 Q1014

METARs EXPIRÉS :
  • 222000Z VRB02KT 9999 NSC 28/05 Q1014
  • 221900Z 13005KT 9999 NSC 29/05 Q1015

TAF TAF SLET
Valide du 22 à 18h jusqu'au 23 à 18h UTC


221610Z 2218/2318 12005KT 9999 SCT070 TX29/2219Z TN17/2310Z
BECMG 2223/2301 VRB02KT NSC
BECMG 2315/2318 32010KT
FIR SLLF / Amérique du Sud



MET'MAP, la Météo Aéronautique d'un coup d'oeil ! - Copyright ORBIFLY Décembre 2007 - Disclaimer

ORBIFLY MET'MAP TEAM :

Programmation & Développement : Alexandra Zaïnal
Sur une idée originale de : Baudouin d'Aumeries
Assistance à la programmation : Marc-Olivier Méhu
Soutien technique & logistique : Manuel Goepfert

Contact : metmap@orbifly.com




SOURCES & CREDITS :

   NOAA       Earth
Advisory